DLH4LF EDDM-LIMC
Flight info
| Callsign | DLH4LF |
|---|---|
| Flight time | 0h 56m |
| Altitude | 24000 |
| Route | MERSI5S MERSI Y100 ATMAX Z999 KPT/N0355F230 Z999 BEMKI L607 XEBIX Y740 NATAG DCT LORLO DCT ATPED DCT LUSIL DCT EVRIP |
| Aircraft | A21N/M-SDE2E3FGIJ1LORWXYZ/HB1 |
Departure
| Time | 2026-05-05 18:51 |
|---|---|
| Airport | Munich Airport (EDDM) |
Arrival
| Time | 2026-05-05 19:48 |
|---|---|
| Airport | Milan Malpensa International Airport (LIMC) |
| Time | Latitude | Longitude | Altitude | Speed | Heading |
|---|---|---|---|---|---|
| 2026-05-05 18:25 | 48.35533 | 11.79739 | 1462 ft | 0 kts | 83° |
| 2026-05-05 18:40 | 48.35532 | 11.79725 | 1462 ft | 2 kts | 83° |
| 2026-05-05 18:40 | 48.35531 | 11.79703 | 1462 ft | 2 kts | 83° |
| 2026-05-05 18:40 | 48.35529 | 11.79682 | 1462 ft | 2 kts | 84° |
| 2026-05-05 18:40 | 48.35527 | 11.79659 | 1462 ft | 2 kts | 83° |
| 2026-05-05 18:41 | 48.35525 | 11.79636 | 1463 ft | 2 kts | 93° |
| 2026-05-05 18:41 | 48.35529 | 11.79614 | 1463 ft | 2 kts | 113° |
| 2026-05-05 18:41 | 48.35536 | 11.79595 | 1464 ft | 2 kts | 131° |
| 2026-05-05 18:41 | 48.35548 | 11.79580 | 1464 ft | 2 kts | 149° |
| 2026-05-05 18:42 | 48.35561 | 11.79571 | 1464 ft | 2 kts | 167° |
| 2026-05-05 18:42 | 48.35569 | 11.79569 | 1464 ft | 1 kts | 176° |
| 2026-05-05 18:42 | 48.35572 | 11.79569 | 1464 ft | 0 kts | 174° |
| 2026-05-05 18:44 | 48.35567 | 11.79569 | 1464 ft | 1 kts | 174° |
| 2026-05-05 18:44 | 48.35548 | 11.79573 | 1464 ft | 4 kts | 173° |
| 2026-05-05 18:45 | 48.35506 | 11.79580 | 1464 ft | 7 kts | 173° |
| 2026-05-05 18:45 | 48.35445 | 11.79591 | 1464 ft | 10 kts | 174° |
| 2026-05-05 18:45 | 48.35365 | 11.79604 | 1463 ft | 12 kts | 174° |
| 2026-05-05 18:45 | 48.35273 | 11.79620 | 1462 ft | 13 kts | 174° |
| 2026-05-05 18:46 | 48.35179 | 11.79635 | 1463 ft | 13 kts | 173° |
| 2026-05-05 18:46 | 48.35092 | 11.79651 | 1464 ft | 12 kts | 173° |
| 2026-05-05 18:46 | 48.35010 | 11.79665 | 1465 ft | 10 kts | 174° |
| 2026-05-05 18:46 | 48.34977 | 11.79672 | 1465 ft | 0 kts | 173° |
| 2026-05-05 18:47 | 48.34975 | 11.79672 | 1465 ft | 0 kts | 173° |
| 2026-05-05 18:47 | 48.34974 | 11.79672 | 1465 ft | 0 kts | 173° |
| 2026-05-05 18:47 | 48.34954 | 11.79676 | 1465 ft | 6 kts | 174° |
| 2026-05-05 18:47 | 48.34891 | 11.79686 | 1465 ft | 10 kts | 173° |
| 2026-05-05 18:48 | 48.34820 | 11.79716 | 1465 ft | 10 kts | 131° |
| 2026-05-05 18:48 | 48.34811 | 11.79828 | 1465 ft | 11 kts | 84° |
| 2026-05-05 18:48 | 48.34820 | 11.79945 | 1465 ft | 11 kts | 82° |
| 2026-05-05 18:48 | 48.34831 | 11.80062 | 1465 ft | 9 kts | 83° |
| 2026-05-05 18:49 | 48.34827 | 11.80133 | 1465 ft | 6 kts | 121° |
| 2026-05-05 18:49 | 48.34799 | 11.80187 | 1465 ft | 6 kts | 130° |
| 2026-05-05 18:49 | 48.34760 | 11.80233 | 1465 ft | 7 kts | 160° |
| 2026-05-05 18:49 | 48.34688 | 11.80246 | 1465 ft | 11 kts | 175° |
| 2026-05-05 18:50 | 48.34607 | 11.80258 | 1465 ft | 12 kts | 174° |
| 2026-05-05 18:50 | 48.34517 | 11.80271 | 1465 ft | 13 kts | 187° |
| 2026-05-05 18:50 | 48.34460 | 11.80172 | 1466 ft | 13 kts | 259° |
| 2026-05-05 18:50 | 48.34426 | 11.79772 | 1468 ft | 77 kts | 263° |
| 2026-05-05 18:51 | 48.34336 | 11.78584 | 1476 ft | 148 kts | 263° |
| 2026-05-05 18:51 | 48.34198 | 11.76831 | 1774 ft | 180 kts | 264° |
| 2026-05-05 18:51 | 48.34081 | 11.75036 | 2700 ft | 173 kts | 265° |
| 2026-05-05 18:51 | 48.33968 | 11.73297 | 3592 ft | 169 kts | 264° |
| 2026-05-05 18:52 | 48.33837 | 11.71463 | 4120 ft | 184 kts | 264° |
| 2026-05-05 18:52 | 48.33684 | 11.69488 | 4622 ft | 201 kts | 263° |
| 2026-05-05 18:52 | 48.33505 | 11.67257 | 5079 ft | 225 kts | 263° |
| 2026-05-05 18:52 | 48.33315 | 11.64920 | 5685 ft | 230 kts | 263° |
| 2026-05-05 18:53 | 48.33132 | 11.62474 | 6337 ft | 244 kts | 264° |
| 2026-05-05 18:53 | 48.32943 | 11.59839 | 6951 ft | 261 kts | 263° |
| 2026-05-05 18:53 | 48.32747 | 11.57116 | 7803 ft | 267 kts | 263° |
| 2026-05-05 18:53 | 48.32547 | 11.54355 | 8725 ft | 269 kts | 263° |
| 2026-05-05 18:54 | 48.32344 | 11.51566 | 9376 ft | 271 kts | 263° |
| 2026-05-05 18:54 | 48.32135 | 11.48755 | 9743 ft | 272 kts | 262° |
| 2026-05-05 18:54 | 48.31926 | 11.45946 | 9820 ft | 272 kts | 262° |
| 2026-05-05 18:54 | 48.31712 | 11.43096 | 9823 ft | 271 kts | 263° |
| 2026-05-05 18:55 | 48.31502 | 11.40306 | 9824 ft | 271 kts | 263° |
| 2026-05-05 18:55 | 48.31288 | 11.37463 | 9825 ft | 271 kts | 263° |
| 2026-05-05 18:55 | 48.31076 | 11.34651 | 9826 ft | 271 kts | 262° |
| 2026-05-05 18:55 | 48.30780 | 11.31822 | 10012 ft | 279 kts | 251° |
| 2026-05-05 18:56 | 48.29714 | 11.29351 | 10373 ft | 301 kts | 222° |
| 2026-05-05 18:56 | 48.27907 | 11.27694 | 11192 ft | 309 kts | 208° |
| 2026-05-05 18:56 | 48.26008 | 11.26248 | 12184 ft | 308 kts | 208° |
| 2026-05-05 18:56 | 48.24103 | 11.24777 | 13095 ft | 310 kts | 209° |
| 2026-05-05 18:57 | 48.22207 | 11.23295 | 13946 ft | 313 kts | 210° |
| 2026-05-05 18:57 | 48.20278 | 11.21775 | 14780 ft | 315 kts | 210° |
| 2026-05-05 18:57 | 48.18348 | 11.20250 | 15582 ft | 319 kts | 210° |
| 2026-05-05 18:57 | 48.16313 | 11.18894 | 16359 ft | 324 kts | 206° |
| 2026-05-05 18:58 | 48.14224 | 11.17643 | 17074 ft | 329 kts | 206° |
| 2026-05-05 18:58 | 48.12080 | 11.16372 | 17800 ft | 332 kts | 206° |
| 2026-05-05 18:58 | 48.09944 | 11.15096 | 18505 ft | 336 kts | 207° |
| 2026-05-05 18:58 | 48.07784 | 11.13798 | 19188 ft | 340 kts | 207° |
| 2026-05-05 18:59 | 48.05586 | 11.12469 | 19850 ft | 344 kts | 208° |
| 2026-05-05 18:59 | 48.03378 | 11.11131 | 20486 ft | 348 kts | 208° |
| 2026-05-05 18:59 | 48.01129 | 11.09766 | 21124 ft | 351 kts | 208° |
| 2026-05-05 18:59 | 47.98867 | 11.08392 | 21743 ft | 355 kts | 209° |
| 2026-05-05 19:00 | 47.96542 | 11.06981 | 22336 ft | 359 kts | 209° |
| 2026-05-05 19:00 | 47.94235 | 11.05580 | 22896 ft | 363 kts | 210° |
| 2026-05-05 19:00 | 47.91907 | 11.04168 | 23438 ft | 367 kts | 210° |
| 2026-05-05 19:00 | 47.89505 | 11.02711 | 23787 ft | 370 kts | 210° |
| 2026-05-05 19:01 | 47.87120 | 11.01268 | 23845 ft | 371 kts | 210° |
| 2026-05-05 19:01 | 47.84726 | 10.99820 | 23847 ft | 371 kts | 210° |
| 2026-05-05 19:01 | 47.82314 | 10.98363 | 23849 ft | 372 kts | 210° |
| 2026-05-05 19:01 | 47.79938 | 10.96929 | 23850 ft | 373 kts | 210° |
| 2026-05-05 19:02 | 47.77518 | 10.95469 | 23850 ft | 373 kts | 210° |
| 2026-05-05 19:02 | 47.75124 | 10.94028 | 23850 ft | 372 kts | 210° |
| 2026-05-05 19:02 | 47.72730 | 10.92588 | 23850 ft | 373 kts | 210° |
| 2026-05-05 19:02 | 47.70338 | 10.91151 | 23850 ft | 373 kts | 210° |
| 2026-05-05 19:03 | 47.67949 | 10.89715 | 23850 ft | 374 kts | 210° |
| 2026-05-05 19:03 | 47.65535 | 10.88267 | 23850 ft | 375 kts | 210° |
| 2026-05-05 19:03 | 47.63124 | 10.86821 | 23850 ft | 375 kts | 210° |
| 2026-05-05 19:03 | 47.60711 | 10.85377 | 23850 ft | 376 kts | 210° |
| 2026-05-05 19:04 | 47.58275 | 10.83920 | 23850 ft | 377 kts | 211° |
| 2026-05-05 19:04 | 47.55837 | 10.82464 | 23850 ft | 377 kts | 211° |
| 2026-05-05 19:04 | 47.53405 | 10.81013 | 23850 ft | 377 kts | 211° |
| 2026-05-05 19:04 | 47.50976 | 10.79564 | 23850 ft | 377 kts | 211° |
| 2026-05-05 19:05 | 47.48560 | 10.78125 | 23850 ft | 378 kts | 211° |
| 2026-05-05 19:05 | 47.46120 | 10.76673 | 23850 ft | 377 kts | 211° |
| 2026-05-05 19:05 | 47.43692 | 10.75230 | 23851 ft | 377 kts | 211° |
| 2026-05-05 19:05 | 47.41254 | 10.73783 | 23851 ft | 377 kts | 211° |
| 2026-05-05 19:06 | 47.38810 | 10.72332 | 23851 ft | 377 kts | 211° |
| 2026-05-05 19:06 | 47.36356 | 10.70877 | 23851 ft | 378 kts | 211° |
| 2026-05-05 19:06 | 47.33920 | 10.69435 | 23851 ft | 377 kts | 211° |
| 2026-05-05 19:06 | 47.31486 | 10.67996 | 23851 ft | 377 kts | 211° |
| 2026-05-05 19:07 | 47.29034 | 10.66547 | 23851 ft | 377 kts | 211° |
| 2026-05-05 19:07 | 47.26587 | 10.65102 | 23851 ft | 377 kts | 211° |
| 2026-05-05 19:07 | 47.24141 | 10.63660 | 23851 ft | 377 kts | 211° |
| 2026-05-05 19:07 | 47.21723 | 10.62236 | 23851 ft | 378 kts | 211° |
| 2026-05-05 19:08 | 47.19302 | 10.60811 | 23851 ft | 378 kts | 211° |
| 2026-05-05 19:08 | 47.16863 | 10.59377 | 23851 ft | 378 kts | 211° |
| 2026-05-05 19:08 | 47.14422 | 10.57943 | 23851 ft | 378 kts | 211° |
| 2026-05-05 19:08 | 47.11995 | 10.56520 | 23851 ft | 378 kts | 211° |
| 2026-05-05 19:09 | 47.09542 | 10.55082 | 23851 ft | 378 kts | 211° |
| 2026-05-05 19:09 | 47.06993 | 10.53928 | 23844 ft | 389 kts | 198° |
| 2026-05-05 19:09 | 47.04285 | 10.53738 | 23848 ft | 401 kts | 183° |
| 2026-05-05 19:09 | 47.01508 | 10.54569 | 23858 ft | 408 kts | 171° |
| 2026-05-05 19:10 | 46.98814 | 10.55797 | 23862 ft | 407 kts | 168° |
| 2026-05-05 19:10 | 46.96161 | 10.57076 | 23869 ft | 404 kts | 168° |
| 2026-05-05 19:10 | 46.93517 | 10.58333 | 23878 ft | 402 kts | 168° |
| 2026-05-05 19:10 | 46.90857 | 10.59562 | 23888 ft | 399 kts | 167° |
| 2026-05-05 19:11 | 46.88179 | 10.60777 | 23899 ft | 397 kts | 167° |
| 2026-05-05 19:11 | 46.85557 | 10.61961 | 23909 ft | 396 kts | 167° |
| 2026-05-05 19:11 | 46.82922 | 10.63150 | 23918 ft | 395 kts | 167° |
| 2026-05-05 19:11 | 46.80289 | 10.64336 | 23925 ft | 395 kts | 167° |
| 2026-05-05 19:12 | 46.77659 | 10.65518 | 23930 ft | 395 kts | 167° |
| 2026-05-05 19:12 | 46.75040 | 10.66662 | 23932 ft | 394 kts | 171° |
| 2026-05-05 19:12 | 46.72366 | 10.67177 | 23934 ft | 386 kts | 185° |
| 2026-05-05 19:12 | 46.69750 | 10.66764 | 23942 ft | 378 kts | 199° |
| 2026-05-05 19:13 | 46.67236 | 10.65734 | 23952 ft | 375 kts | 202° |
| 2026-05-05 19:13 | 46.64737 | 10.64590 | 23955 ft | 375 kts | 203° |
| 2026-05-05 19:13 | 46.62245 | 10.63445 | 23957 ft | 375 kts | 203° |
| 2026-05-05 19:13 | 46.59757 | 10.62319 | 23958 ft | 375 kts | 202° |
| 2026-05-05 19:14 | 46.57276 | 10.61210 | 23959 ft | 375 kts | 202° |
| 2026-05-05 19:14 | 46.54771 | 10.60101 | 23960 ft | 376 kts | 202° |
| 2026-05-05 19:14 | 46.52290 | 10.59009 | 23960 ft | 376 kts | 202° |
| 2026-05-05 19:14 | 46.49798 | 10.57916 | 23960 ft | 376 kts | 202° |
| 2026-05-05 19:15 | 46.47316 | 10.56831 | 23960 ft | 376 kts | 202° |
| 2026-05-05 19:15 | 46.44824 | 10.55743 | 23960 ft | 375 kts | 202° |
| 2026-05-05 19:15 | 46.42327 | 10.54654 | 23960 ft | 375 kts | 202° |
| 2026-05-05 19:15 | 46.39805 | 10.53555 | 23960 ft | 375 kts | 202° |
| 2026-05-05 19:16 | 46.37306 | 10.52468 | 23960 ft | 375 kts | 202° |
| 2026-05-05 19:16 | 46.34820 | 10.51388 | 23960 ft | 375 kts | 202° |
| 2026-05-05 19:16 | 46.32352 | 10.50317 | 23960 ft | 375 kts | 202° |
| 2026-05-05 19:16 | 46.29828 | 10.49222 | 23960 ft | 375 kts | 202° |
| 2026-05-05 19:17 | 46.27358 | 10.48152 | 23960 ft | 375 kts | 202° |
| 2026-05-05 19:17 | 46.24862 | 10.47073 | 23960 ft | 375 kts | 202° |
| 2026-05-05 19:17 | 46.22338 | 10.45982 | 23960 ft | 376 kts | 202° |
| 2026-05-05 19:17 | 46.19858 | 10.44910 | 23961 ft | 375 kts | 202° |
| 2026-05-05 19:18 | 46.17396 | 10.43667 | 23952 ft | 370 kts | 212° |
| 2026-05-05 19:18 | 46.15352 | 10.41590 | 23957 ft | 359 kts | 230° |
| 2026-05-05 19:18 | 46.13879 | 10.38756 | 23966 ft | 352 kts | 245° |
| 2026-05-05 19:18 | 46.12755 | 10.35629 | 23969 ft | 351 kts | 248° |
| 2026-05-05 19:19 | 46.11672 | 10.32492 | 23968 ft | 351 kts | 247° |
| 2026-05-05 19:19 | 46.10564 | 10.29295 | 23966 ft | 351 kts | 247° |
| 2026-05-05 19:19 | 46.09479 | 10.26196 | 23964 ft | 351 kts | 246° |
| 2026-05-05 19:19 | 46.08370 | 10.23050 | 23963 ft | 351 kts | 246° |
| 2026-05-05 19:20 | 46.07267 | 10.19939 | 23963 ft | 351 kts | 246° |
| 2026-05-05 19:20 | 46.06152 | 10.16804 | 23962 ft | 351 kts | 246° |
| 2026-05-05 19:20 | 46.05037 | 10.13670 | 23963 ft | 351 kts | 246° |
| 2026-05-05 19:20 | 46.03928 | 10.10531 | 23964 ft | 351 kts | 247° |
| 2026-05-05 19:21 | 46.02864 | 10.07383 | 23965 ft | 351 kts | 248° |
| 2026-05-05 19:21 | 46.01820 | 10.04258 | 23964 ft | 350 kts | 248° |
| 2026-05-05 19:21 | 46.00775 | 10.01135 | 23779 ft | 345 kts | 248° |
| 2026-05-05 19:21 | 45.99734 | 9.98030 | 23293 ft | 345 kts | 248° |
| 2026-05-05 19:22 | 45.98690 | 9.94919 | 22779 ft | 344 kts | 248° |
| 2026-05-05 19:22 | 45.97655 | 9.91846 | 22315 ft | 342 kts | 247° |
| 2026-05-05 19:22 | 45.96629 | 9.88805 | 21857 ft | 340 kts | 247° |
| 2026-05-05 19:22 | 45.95591 | 9.85732 | 21411 ft | 337 kts | 247° |
| 2026-05-05 19:23 | 45.94586 | 9.82771 | 21216 ft | 327 kts | 247° |
| 2026-05-05 19:23 | 45.93608 | 9.79891 | 21038 ft | 317 kts | 247° |
| 2026-05-05 19:23 | 45.92661 | 9.77105 | 20992 ft | 306 kts | 247° |
| 2026-05-05 19:23 | 45.91727 | 9.74355 | 20991 ft | 306 kts | 247° |
| 2026-05-05 19:24 | 45.90791 | 9.71600 | 20990 ft | 306 kts | 247° |
| 2026-05-05 19:24 | 45.89857 | 9.68854 | 20989 ft | 307 kts | 247° |
| 2026-05-05 19:24 | 45.88905 | 9.66058 | 20989 ft | 306 kts | 247° |
| 2026-05-05 19:24 | 45.87970 | 9.63320 | 20940 ft | 303 kts | 247° |
| 2026-05-05 19:25 | 45.87050 | 9.60627 | 20600 ft | 301 kts | 247° |
| 2026-05-05 19:25 | 45.86138 | 9.57957 | 20129 ft | 302 kts | 247° |
| 2026-05-05 19:25 | 45.85207 | 9.55231 | 19686 ft | 301 kts | 246° |
| 2026-05-05 19:25 | 45.84295 | 9.52570 | 19276 ft | 300 kts | 245° |
| 2026-05-05 19:26 | 45.83098 | 9.50112 | 18820 ft | 304 kts | 229° |
| 2026-05-05 19:26 | 45.81548 | 9.48093 | 18430 ft | 303 kts | 224° |
| 2026-05-05 19:26 | 45.79933 | 9.46145 | 18024 ft | 301 kts | 223° |
| 2026-05-05 19:26 | 45.78351 | 9.44218 | 17616 ft | 300 kts | 224° |
| 2026-05-05 19:27 | 45.76785 | 9.42273 | 17210 ft | 298 kts | 224° |
| 2026-05-05 19:27 | 45.75228 | 9.40314 | 16804 ft | 297 kts | 224° |
| 2026-05-05 19:27 | 45.73676 | 9.38342 | 16397 ft | 295 kts | 224° |
| 2026-05-05 19:27 | 45.72149 | 9.36392 | 15994 ft | 294 kts | 224° |
| 2026-05-05 19:28 | 45.70632 | 9.34450 | 15593 ft | 293 kts | 223° |
| 2026-05-05 19:28 | 45.69102 | 9.32488 | 15189 ft | 291 kts | 223° |
| 2026-05-05 19:28 | 45.67604 | 9.30566 | 14794 ft | 290 kts | 223° |
| 2026-05-05 19:28 | 45.66093 | 9.28629 | 14395 ft | 289 kts | 223° |
| 2026-05-05 19:29 | 45.64606 | 9.26722 | 14002 ft | 288 kts | 223° |
| 2026-05-05 19:29 | 45.63115 | 9.24812 | 13607 ft | 287 kts | 223° |
| 2026-05-05 19:29 | 45.61636 | 9.22917 | 13215 ft | 285 kts | 222° |
| 2026-05-05 19:29 | 45.60138 | 9.21001 | 12817 ft | 284 kts | 222° |
| 2026-05-05 19:30 | 45.58673 | 9.19128 | 12427 ft | 283 kts | 222° |
| 2026-05-05 19:30 | 45.57196 | 9.17240 | 12077 ft | 280 kts | 222° |
| 2026-05-05 19:30 | 45.55775 | 9.15426 | 11891 ft | 272 kts | 222° |
| 2026-05-05 19:30 | 45.54372 | 9.13636 | 11578 ft | 269 kts | 222° |
| 2026-05-05 19:31 | 45.52973 | 9.11853 | 11215 ft | 267 kts | 222° |
| 2026-05-05 19:31 | 45.51581 | 9.10079 | 10862 ft | 266 kts | 222° |
| 2026-05-05 19:31 | 45.50208 | 9.08330 | 10516 ft | 264 kts | 222° |
| 2026-05-05 19:31 | 45.48839 | 9.06589 | 10146 ft | 264 kts | 223° |
| 2026-05-05 19:32 | 45.47463 | 9.04833 | 9760 ft | 264 kts | 223° |
| 2026-05-05 19:32 | 45.46094 | 9.03087 | 9401 ft | 263 kts | 223° |
| 2026-05-05 19:32 | 45.44734 | 9.01356 | 9052 ft | 261 kts | 223° |
| 2026-05-05 19:32 | 45.43389 | 8.99649 | 8702 ft | 260 kts | 223° |
| 2026-05-05 19:33 | 45.42026 | 8.97920 | 8345 ft | 259 kts | 223° |
| 2026-05-05 19:33 | 45.40679 | 8.96212 | 7991 ft | 258 kts | 223° |
| 2026-05-05 19:33 | 45.39320 | 8.94605 | 7636 ft | 258 kts | 212° |
| 2026-05-05 19:33 | 45.37595 | 8.93947 | 7231 ft | 259 kts | 177° |
| 2026-05-05 19:34 | 45.35836 | 8.94350 | 6917 ft | 257 kts | 166° |
| 2026-05-05 19:34 | 45.34091 | 8.94975 | 6564 ft | 256 kts | 166° |
| 2026-05-05 19:34 | 45.32374 | 8.95564 | 6220 ft | 255 kts | 167° |
| 2026-05-05 19:35 | 45.28926 | 8.96592 | 5550 ft | 252 kts | 168° |
| 2026-05-05 19:35 | 45.27213 | 8.97068 | 5217 ft | 251 kts | 169° |
| 2026-05-05 19:35 | 45.25500 | 8.97535 | 4886 ft | 250 kts | 168° |
| 2026-05-05 19:35 | 45.23790 | 8.97999 | 4558 ft | 249 kts | 168° |
| 2026-05-05 19:36 | 45.22100 | 8.98456 | 4236 ft | 247 kts | 168° |
| 2026-05-05 19:36 | 45.20414 | 8.98910 | 4008 ft | 241 kts | 168° |
| 2026-05-05 19:36 | 45.18805 | 8.99339 | 3991 ft | 226 kts | 168° |
| 2026-05-05 19:36 | 45.17316 | 8.99736 | 3985 ft | 215 kts | 168° |
| 2026-05-05 19:37 | 45.15821 | 9.00134 | 3993 ft | 215 kts | 168° |
| 2026-05-05 19:37 | 45.14344 | 9.00346 | 3978 ft | 215 kts | 188° |
| 2026-05-05 19:37 | 45.12987 | 8.99497 | 3982 ft | 215 kts | 224° |
| 2026-05-05 19:37 | 45.12220 | 8.97736 | 3989 ft | 213 kts | 259° |
| 2026-05-05 19:38 | 45.12302 | 8.95675 | 3993 ft | 211 kts | 295° |
| 2026-05-05 19:38 | 45.13066 | 8.93923 | 4012 ft | 209 kts | 309° |
| 2026-05-05 19:38 | 45.13995 | 8.92345 | 4006 ft | 208 kts | 312° |
| 2026-05-05 19:38 | 45.14960 | 8.90796 | 4003 ft | 207 kts | 314° |
| 2026-05-05 19:39 | 45.16088 | 8.89598 | 3991 ft | 206 kts | 339° |
| 2026-05-05 19:39 | 45.17461 | 8.89028 | 4009 ft | 206 kts | 347° |
| 2026-05-05 19:39 | 45.18874 | 8.88585 | 4011 ft | 211 kts | 348° |
| 2026-05-05 19:39 | 45.20350 | 8.88096 | 4019 ft | 224 kts | 346° |
| 2026-05-05 19:40 | 45.21874 | 8.87545 | 4012 ft | 226 kts | 346° |
| 2026-05-05 19:40 | 45.23394 | 8.86962 | 4010 ft | 227 kts | 345° |
| 2026-05-05 19:40 | 45.24912 | 8.86361 | 4009 ft | 227 kts | 345° |
| 2026-05-05 19:40 | 45.26427 | 8.85749 | 4008 ft | 227 kts | 344° |
| 2026-05-05 19:41 | 45.27947 | 8.85129 | 4008 ft | 227 kts | 344° |
| 2026-05-05 19:41 | 45.29475 | 8.84502 | 4008 ft | 227 kts | 344° |
| 2026-05-05 19:41 | 45.30988 | 8.83878 | 4008 ft | 227 kts | 344° |
| 2026-05-05 19:41 | 45.32495 | 8.83257 | 4008 ft | 227 kts | 344° |
| 2026-05-05 19:42 | 45.34014 | 8.82630 | 4008 ft | 227 kts | 344° |
| 2026-05-05 19:42 | 45.35531 | 8.82002 | 4008 ft | 227 kts | 344° |
| 2026-05-05 19:42 | 45.37027 | 8.81383 | 4000 ft | 216 kts | 344° |
| 2026-05-05 19:42 | 45.38431 | 8.80801 | 3997 ft | 206 kts | 344° |
| 2026-05-05 19:43 | 45.39794 | 8.80236 | 4004 ft | 206 kts | 344° |
| 2026-05-05 19:43 | 45.41160 | 8.79613 | 4007 ft | 206 kts | 343° |
| 2026-05-05 19:43 | 45.42541 | 8.79065 | 4007 ft | 205 kts | 347° |
| 2026-05-05 19:43 | 45.43933 | 8.78628 | 4008 ft | 205 kts | 349° |
| 2026-05-05 19:44 | 45.45336 | 8.78232 | 3939 ft | 206 kts | 349° |
| 2026-05-05 19:44 | 45.46742 | 8.77846 | 3706 ft | 202 kts | 349° |
| 2026-05-05 19:44 | 45.48090 | 8.77477 | 3521 ft | 192 kts | 349° |
| 2026-05-05 19:44 | 45.49385 | 8.77120 | 3235 ft | 187 kts | 349° |
| 2026-05-05 19:45 | 45.50634 | 8.76774 | 2958 ft | 177 kts | 349° |
| 2026-05-05 19:45 | 45.51800 | 8.76452 | 2706 ft | 170 kts | 349° |
| 2026-05-05 19:45 | 45.52974 | 8.76127 | 2476 ft | 170 kts | 349° |
| 2026-05-05 19:45 | 45.54100 | 8.75815 | 2275 ft | 159 kts | 349° |
| 2026-05-05 19:46 | 45.55127 | 8.75531 | 2062 ft | 141 kts | 349° |
| 2026-05-05 19:46 | 45.56052 | 8.75275 | 1867 ft | 134 kts | 349° |
| 2026-05-05 19:46 | 45.56971 | 8.75022 | 1703 ft | 133 kts | 349° |
| 2026-05-05 19:46 | 45.57881 | 8.74775 | 1538 ft | 133 kts | 350° |
| 2026-05-05 19:47 | 45.58799 | 8.74543 | 1357 ft | 133 kts | 350° |
| 2026-05-05 19:47 | 45.59702 | 8.74291 | 1185 ft | 132 kts | 349° |
| 2026-05-05 19:47 | 45.60603 | 8.74036 | 1027 ft | 132 kts | 349° |
| 2026-05-05 19:47 | 45.61492 | 8.73775 | 854 ft | 132 kts | 349° |
| 2026-05-05 19:48 | 45.62377 | 8.73522 | 776 ft | 115 kts | 349° |
| 2026-05-05 19:48 | 45.62868 | 8.73390 | 776 ft | 41 kts | 349° |
| 2026-05-05 19:48 | 45.63114 | 8.73288 | 776 ft | 30 kts | 326° |
| 2026-05-05 19:48 | 45.63254 | 8.73084 | 776 ft | 27 kts | 305° |
| 2026-05-05 19:49 | 45.63353 | 8.72875 | 776 ft | 18 kts | 306° |
| 2026-05-05 19:49 | 45.63406 | 8.72717 | 776 ft | 17 kts | 281° |
| 2026-05-05 19:49 | 45.63399 | 8.72546 | 776 ft | 17 kts | 259° |
| 2026-05-05 19:49 | 45.63377 | 8.72382 | 776 ft | 16 kts | 258° |
| 2026-05-05 19:50 | 45.63352 | 8.72211 | 776 ft | 18 kts | 258° |
| 2026-05-05 19:50 | 45.63329 | 8.72046 | 776 ft | 9 kts | 259° |
| 2026-05-05 19:50 | 45.63325 | 8.72010 | 776 ft | 0 kts | 259° |
| 2026-05-05 19:50 | 45.63324 | 8.72005 | 776 ft | 0 kts | 259° |
| 2026-05-05 19:51 | 45.63323 | 8.71996 | 776 ft | 1 kts | 255° |
| 2026-05-05 19:51 | 45.63311 | 8.71977 | 776 ft | 4 kts | 214° |
| 2026-05-05 19:51 | 45.63272 | 8.71969 | 776 ft | 6 kts | 179° |
| 2026-05-05 19:51 | 45.63225 | 8.71983 | 776 ft | 7 kts | 167° |
| 2026-05-05 19:52 | 45.63173 | 8.71999 | 776 ft | 7 kts | 168° |
| 2026-05-05 19:52 | 45.63116 | 8.72014 | 776 ft | 8 kts | 170° |
| 2026-05-05 19:52 | 45.63051 | 8.72031 | 776 ft | 9 kts | 169° |
| 2026-05-05 19:52 | 45.62980 | 8.72050 | 776 ft | 10 kts | 169° |
| 2026-05-05 19:53 | 45.62903 | 8.72072 | 776 ft | 11 kts | 170° |
| 2026-05-05 19:53 | 45.62822 | 8.72092 | 776 ft | 11 kts | 168° |
| 2026-05-05 19:53 | 45.62746 | 8.72116 | 776 ft | 10 kts | 169° |
| 2026-05-05 19:53 | 45.62683 | 8.72134 | 776 ft | 8 kts | 167° |
| 2026-05-05 19:54 | 45.62624 | 8.72151 | 776 ft | 9 kts | 170° |
| 2026-05-05 19:54 | 45.62552 | 8.72170 | 776 ft | 11 kts | 169° |
| 2026-05-05 19:54 | 45.62494 | 8.72186 | 776 ft | 0 kts | 169° |
| 2026-05-05 19:55 | 45.62494 | 8.72187 | 776 ft | 0 kts | 169° |
| 2026-05-05 19:55 | 45.62493 | 8.72187 | 776 ft | 0 kts | 169° |
| 2026-05-05 19:55 | 45.62492 | 8.72187 | 776 ft | 0 kts | 169° |
| 2026-05-05 19:56 | 45.62482 | 8.72189 | 776 ft | 4 kts | 170° |
| 2026-05-05 19:56 | 45.62442 | 8.72200 | 776 ft | 6 kts | 170° |
| 2026-05-05 19:56 | 45.62400 | 8.72198 | 776 ft | 5 kts | 198° |
| 2026-05-05 19:56 | 45.62372 | 8.72161 | 776 ft | 5 kts | 256° |
| 2026-05-05 19:57 | 45.62380 | 8.72119 | 776 ft | 1 kts | 309° |
| 2026-05-05 19:57 | 45.62381 | 8.72113 | 776 ft | 0 kts | 274° |
| 2026-05-05 19:57 | 45.62381 | 8.72102 | 776 ft | 3 kts | 265° |
| 2026-05-05 19:57 | 45.62368 | 8.72053 | 776 ft | 7 kts | 244° |
| 2026-05-05 19:58 | 45.62348 | 8.71964 | 776 ft | 9 kts | 270° |
| 2026-05-05 19:58 | 45.62394 | 8.71906 | 776 ft | 8 kts | 348° |
| 2026-05-05 19:58 | 45.62449 | 8.71890 | 776 ft | 7 kts | 348° |
| 2026-05-05 19:58 | 45.62485 | 8.71879 | 776 ft | 4 kts | 349° |
| 2026-05-05 19:59 | 45.62514 | 8.71880 | 776 ft | 3 kts | 18° |
| 2026-05-05 19:59 | 45.62530 | 8.71906 | 776 ft | 3 kts | 77° |
| 2026-05-05 19:59 | 45.62533 | 8.71940 | 776 ft | 3 kts | 80° |
| 2026-05-05 19:59 | 45.62537 | 8.71965 | 776 ft | 0 kts | 79° |
| 2026-05-05 20:00 | 45.62537 | 8.71967 | 776 ft | 0 kts | 79° |